Time;durP1;ratioP1;P1;durP2;ratioP2;P2;SDS_P1;SDS_P2;PMS_P1;PMS_P2;Temp;Humidity;BMP_temperature;BMP_pressure;BME280_temperature;BME280_humidity;BME280_pressure;Samples;Min_cycle;Max_cycle;Signal;HPM_P1;HPM_P2
2022/06/29 00:01:37;;;;;;;3.63;0.77;;;14.40;60.60;;;;;;4106314;28;20791;-87
2022/06/29 00:03:58;;;;;;;4.43;0.52;;;14.40;60.50;;;;;;4105395;28;20031;-86
2022/06/29 00:06:19;;;;;;;2.10;0.50;;;14.40;60.60;;;;;;4105561;28;20575;-86
2022/06/29 00:08:40;;;;;;;6.07;0.68;;;14.30;60.60;;;;;;4104430;28;20102;-86
2022/06/29 00:11:01;;;;;;;1.40;0.70;;;14.30;60.70;;;;;;4090945;28;20039;-87
2022/06/29 00:13:22;;;;;;;1.35;0.60;;;14.30;60.80;;;;;;4085514;28;20094;-87
2022/06/29 00:15:43;;;;;;;1.58;0.68;;;14.20;60.90;;;;;;4095725;28;20042;-86
2022/06/29 00:18:04;;;;;;;0.73;0.45;;;14.20;60.90;;;;;;4090343;28;20031;-87
2022/06/29 00:20:25;;;;;;;0.88;0.50;;;14.20;61.00;;;;;;4087643;28;20397;-86
2022/06/29 00:22:48;;;;;;;3.92;0.32;;;14.10;61.20;;;;;;4096919;28;20043;-87
2022/06/29 00:25:11;;;;;;;1.13;0.50;;;14.20;61.40;;;;;;4107720;28;20038;-86
2022/06/29 00:27:32;;;;;;;1.63;0.45;;;14.00;61.40;;;;;;4099419;28;20043;-86
2022/06/29 00:29:53;;;;;;;2.35;0.55;;;14.00;61.50;;;;;;4099532;28;20039;-86
2022/06/29 00:32:14;;;;;;;0.63;0.38;;;14.00;61.60;;;;;;4085522;28;20110;-86
2022/06/29 00:34:36;;;;;;;8.13;0.70;;;14.00;61.60;;;;;;4092019;28;20463;-86
2022/06/29 00:36:57;;;;;;;3.90;0.63;;;13.90;61.60;;;;;;4092232;28;20030;-85
2022/06/29 00:39:18;;;;;;;2.28;0.50;;;13.90;61.70;;;;;;4100287;28;20093;-86
2022/06/29 00:41:44;;;;;;;1.65;0.38;;;13.80;61.90;;;;;;4098113;28;20525;-85
2022/06/29 00:44:07;;;;;;;5.45;0.50;;;13.80;61.70;;;;;;4097527;28;20054;-85
2022/06/29 00:46:29;;;;;;;5.05;0.50;;;13.70;61.70;;;;;;4102472;28;20050;-85
2022/06/29 00:48:50;;;;;;;1.30;0.45;;;13.70;61.70;;;;;;4099099;28;20164;-85
2022/06/29 00:51:11;;;;;;;1.05;0.40;;;13.60;62.00;;;;;;4088066;28;20416;-85
2022/06/29 00:53:37;;;;;;;1.63;0.50;;;13.60;62.30;;;;;;4097975;28;20109;-85
2022/06/29 00:56:01;;;;;;;2.28;0.32;;;13.50;62.50;;;;;;4106528;28;20046;-86
2022/06/29 00:58:25;;;;;;;1.25;0.40;;;13.50;62.70;;;;;;4095386;28;20034;-87
2022/06/29 01:00:46;;;;;;;4.00;0.50;;;13.40;62.90;;;;;;4102296;28;20688;-86
2022/06/29 01:03:07;;;;;;;4.25;0.68;;;13.40;63.10;;;;;;4086157;28;20057;-86
2022/06/29 01:05:30;;;;;;;3.83;0.60;;;13.40;63.30;;;;;;4088608;28;20126;-86
2022/06/29 01:07:52;;;;;;;1.70;0.80;;;13.40;63.60;;;;;;4098009;28;20036;-85
2022/06/29 01:10:13;;;;;;;2.97;0.65;;;13.40;63.90;;;;;;4094443;28;20407;-85
2022/06/29 01:12:34;;;;;;;3.25;1.00;;;13.30;64.00;;;;;;4096204;28;20037;-85
2022/06/29 01:14:55;;;;;;;5.63;0.68;;;13.30;64.20;;;;;;4085589;28;20043;-85
2022/06/29 01:17:17;;;;;;;2.95;0.70;;;13.30;64.50;;;;;;4084932;28;20078;-86
2022/06/29 01:19:40;;;;;;;1.10;0.70;;;13.20;64.60;;;;;;4098999;28;20083;-86
2022/06/29 01:22:21;;;;;;;2.40;0.68;;;13.20;64.70;;;;;;4096968;28;20891;-86
2022/06/29 01:24:44;;;;;;;1.02;0.60;;;13.20;65.50;;;;;;4098810;28;20544;-85
2022/06/29 01:27:05;;;;;;;1.25;0.70;;;13.20;65.00;;;;;;4098885;28;20062;-86
2022/06/29 01:29:28;;;;;;;1.20;0.70;;;13.20;65.10;;;;;;4085442;28;20067;-86
2022/06/29 01:31:54;;;;;;;3.03;0.90;;;13.10;65.10;;;;;;4103548;28;20213;-86
2022/06/29 01:34:15;;;;;;;1.02;0.80;;;13.10;65.30;;;;;;4089541;28;20498;-85
2022/06/29 01:36:37;;;;;;;2.35;0.63;;;13.10;65.30;;;;;;4101596;28;20069;-86
2022/06/29 01:38:58;;;;;;;4.07;1.00;;;13.10;65.30;;;;;;4101771;28;20079;-85
2022/06/29 01:41:19;;;;;;;4.70;0.75;;;13.10;65.50;;;;;;4100076;28;20031;-86
2022/06/29 01:43:40;;;;;;;3.22;1.70;;;13.10;65.70;;;;;;4088882;28;20061;-85
2022/06/29 01:46:01;;;;;;;2.70;1.02;;;13.00;65.70;;;;;;4097890;28;20035;-85
2022/06/29 01:48:25;;;;;;;6.38;1.30;;;13.00;65.80;;;;;;4091627;28;20035;-84
2022/06/29 01:50:46;;;;;;;2.97;1.20;;;13.00;66.00;;;;;;4105180;28;20036;-85
2022/06/29 01:53:07;;;;;;;7.90;1.27;;;13.00;66.10;;;;;;4106054;28;21048;-85
2022/06/29 01:55:28;;;;;;;3.22;1.13;;;13.00;66.30;;;;;;4103353;28;20049;-86
2022/06/29 01:57:49;;;;;;;3.22;1.27;;;13.00;66.50;;;;;;4103693;28;20122;-85
2022/06/29 02:00:10;;;;;;;4.50;1.30;;;13.00;66.50;;;;;;4102055;28;20109;-87
2022/06/29 02:02:31;;;;;;;2.35;1.40;;;12.90;66.60;;;;;;4086451;28;20122;-85
2022/06/29 02:04:52;;;;;;;5.35;1.45;;;12.90;66.70;;;;;;4084669;28;20031;-86
2022/06/29 02:07:13;;;;;;;7.20;1.20;;;12.90;66.90;;;;;;4087805;28;20130;-85
2022/06/29 02:09:34;;;;;;;3.35;1.38;;;12.90;67.00;;;;;;4099828;28;20052;-85
2022/06/29 02:11:55;;;;;;;2.25;1.40;;;12.90;67.00;;;;;;4100476;28;20118;-85
2022/06/29 02:14:16;;;;;;;1.75;1.02;;;12.90;67.00;;;;;;4081551;28;20143;-84
2022/06/29 02:16:37;;;;;;;3.03;1.10;;;12.90;67.20;;;;;;4100545;28;20049;-85
2022/06/29 02:18:58;;;;;;;1.80;1.30;;;12.90;68.00;;;;;;4089076;28;20035;-85
2022/06/29 02:21:19;;;;;;;6.28;1.20;;;12.90;67.30;;;;;;4100321;28;20049;-86
2022/06/29 02:23:40;;;;;;;1.85;1.20;;;12.90;67.30;;;;;;4089694;28;20035;-85
2022/06/29 02:26:02;;;;;;;3.72;1.10;;;12.80;67.30;;;;;;4101421;28;20118;-85
2022/06/29 02:28:25;;;;;;;4.80;1.27;;;12.80;67.30;;;;;;4098892;28;20126;-85
2022/06/29 02:36:05;;;;;;;3.08;0.80;;;12.80;67.20;;;;;;4096419;28;20849;-85
2022/06/29 02:38:26;;;;;;;2.85;1.00;;;12.80;67.20;;;;;;4083689;28;20027;-85
2022/06/29 02:40:47;;;;;;;2.38;0.93;;;12.80;67.30;;;;;;4087754;28;20032;-86
2022/06/29 02:43:08;;;;;;;5.40;1.13;;;12.70;67.30;;;;;;4086313;28;20134;-86
2022/06/29 02:45:29;;;;;;;4.18;1.00;;;12.70;67.30;;;;;;4087793;28;20062;-86
2022/06/29 02:47:50;;;;;;;3.13;1.00;;;12.70;67.50;;;;;;4097078;28;20039;-86
2022/06/29 02:50:11;;;;;;;3.33;1.13;;;12.80;67.50;;;;;;4084628;28;20039;-87
2022/06/29 02:52:32;;;;;;;3.45;0.98;;;12.70;67.50;;;;;;4097058;28;20030;-85
2022/06/29 02:54:53;;;;;;;4.70;1.10;;;12.70;67.40;;;;;;4099186;28;20031;-85
2022/06/29 02:57:14;;;;;;;7.43;1.05;;;12.70;67.50;;;;;;4092348;28;20043;-85
2022/06/29 02:59:35;;;;;;;4.05;1.20;;;12.70;67.50;;;;;;4098156;28;20047;-85
2022/06/29 03:01:57;;;;;;;2.72;0.93;;;12.60;67.50;;;;;;4100295;28;20752;-85
2022/06/29 03:04:18;;;;;;;3.20;0.90;;;12.60;67.50;;;;;;4094948;28;20066;-85
2022/06/29 03:06:40;;;;;;;2.65;0.65;;;12.60;67.60;;;;;;4099265;28;20040;-85
2022/06/29 03:09:01;;;;;;;1.95;0.85;;;12.60;67.60;;;;;;4097828;28;20037;-84
2022/06/29 03:11:22;;;;;;;2.92;1.17;;;12.60;67.70;;;;;;4098575;28;20039;-85
2022/06/29 03:13:43;;;;;;;5.60;0.80;;;12.60;67.80;;;;;;4076537;28;21030;-85
2022/06/29 03:16:07;;;;;;;3.67;1.10;;;12.60;67.80;;;;;;4100912;28;20080;-85
2022/06/29 03:18:27;;;;;;;1.17;0.80;;;12.60;67.90;;;;;;4083777;28;20059;-85
2022/06/29 03:20:51;;;;;;;2.22;0.80;;;12.60;68.00;;;;;;4099066;28;20094;-85
2022/06/29 03:23:12;;;;;;;6.17;1.00;;;12.60;68.10;;;;;;4089213;28;20039;-85
2022/06/29 03:25:33;;;;;;;4.53;1.00;;;12.60;68.20;;;;;;4101680;28;20026;-85
2022/06/29 03:27:54;;;;;;;5.65;0.98;;;12.60;68.30;;;;;;4102804;28;20106;-85
2022/06/29 03:30:16;;;;;;;4.63;0.93;;;12.60;68.50;;;;;;4097755;28;20550;-85
2022/06/29 03:32:37;;;;;;;6.18;0.90;;;12.60;68.60;;;;;;4099923;28;20030;-85
2022/06/29 03:34:58;;;;;;;8.55;1.10;;;12.60;68.60;;;;;;4100330;28;20062;-85
2022/06/29 03:37:19;;;;;;;5.95;1.08;;;12.60;68.70;;;;;;4088234;28;20389;-85
2022/06/29 03:39:41;;;;;;;2.20;0.93;;;12.70;68.90;;;;;;4095624;28;20165;-85
2022/06/29 03:42:03;;;;;;;3.67;0.82;;;12.70;69.00;;;;;;4098059;28;21980;-85
2022/06/29 03:44:24;;;;;;;3.78;1.30;;;12.70;69.10;;;;;;4109864;28;20033;-85
2022/06/29 03:46:45;;;;;;;5.43;1.30;;;12.70;69.40;;;;;;4115471;28;20098;-86
2022/06/29 03:49:05;;;;;;;3.22;1.20;;;12.70;70.00;;;;;;4103028;28;21537;-86
2022/06/29 03:51:26;;;;;;;3.25;1.33;;;12.80;70.70;;;;;;4098538;28;20055;-85
2022/06/29 03:53:47;;;;;;;4.15;1.13;;;12.90;71.60;;;;;;4097369;28;20720;-86
2022/06/29 03:56:09;;;;;;;3.25;1.00;;;12.90;72.50;;;;;;4098786;28;20130;-85
2022/06/29 03:58:30;;;;;;;3.03;1.15;;;13.00;73.30;;;;;;4099200;28;20251;-85
2022/06/29 04:00:51;;;;;;;2.60;1.27;;;13.10;73.70;;;;;;4095110;28;20550;-85
2022/06/29 04:03:13;;;;;;;13.20;1.48;;;13.20;74.10;;;;;;4086115;28;20042;-86
2022/06/29 04:05:34;;;;;;;3.53;1.83;;;13.40;74.70;;;;;;4085383;28;20039;-86
2022/06/29 04:07:55;;;;;;;5.70;1.50;;;13.50;75.10;;;;;;4104115;28;20077;-85
2022/06/29 04:10:16;;;;;;;4.90;1.17;;;13.60;75.80;;;;;;4090715;28;20043;-86
2022/06/29 04:12:37;;;;;;;4.82;1.58;;;13.70;76.00;;;;;;4082533;28;20094;-86
2022/06/29 04:14:59;;;;;;;5.25;1.40;;;13.90;76.00;;;;;;4100639;28;20043;-86
2022/06/29 04:17:20;;;;;;;3.28;1.45;;;14.00;76.00;;;;;;4089421;28;20063;-86
2022/06/29 04:19:42;;;;;;;3.05;1.40;;;14.20;75.90;;;;;;4086380;28;20031;-85
2022/06/29 04:22:03;;;;;;;6.38;1.45;;;14.40;75.90;;;;;;4089816;28;20035;-86
2022/06/29 04:24:24;;;;;;;6.10;1.40;;;14.50;75.80;;;;;;4091564;28;20488;-85
2022/06/29 04:26:45;;;;;;;4.50;1.48;;;14.70;75.60;;;;;;4102077;28;20518;-86
2022/06/29 04:29:08;;;;;;;3.22;1.35;;;14.80;75.70;;;;;;4088346;28;20709;-89
2022/06/29 04:31:29;;;;;;;2.42;1.27;;;15.00;75.60;;;;;;4107518;28;20069;-89
2022/06/29 04:33:50;;;;;;;2.75;1.30;;;15.20;75.30;;;;;;4105908;28;20034;-88
2022/06/29 04:36:11;;;;;;;3.10;1.15;;;15.30;75.00;;;;;;4106651;28;20542;-88
2022/06/29 04:38:32;;;;;;;1.88;1.10;;;15.50;74.80;;;;;;4091571;28;20034;-89
2022/06/29 04:40:56;;;;;;;3.75;1.17;;;15.70;74.60;;;;;;4090173;28;20507;-88
2022/06/29 04:43:17;;;;;;;1.80;1.08;;;15.80;74.70;;;;;;4113459;28;20035;-91
2022/06/29 04:48:17;;;;;;;8.98;2.05;;;16.10;74.10;;;;;;4109460;28;20062;-90
2022/06/29 04:50:38;;;;;;;3.25;1.73;;;16.30;73.50;;;;;;4104919;28;20035;-89
2022/06/29 04:52:59;;;;;;;3.50;1.63;;;16.40;73.00;;;;;;4097800;28;20094;-90
2022/06/29 04:55:23;;;;;;;9.48;2.08;;;16.60;72.70;;;;;;4096686;28;20107;-90
2022/06/29 04:57:45;;;;;;;3.63;1.98;;;16.70;72.20;;;;;;4104481;28;20082;-89
2022/06/29 05:00:06;;;;;;;2.08;1.52;;;16.80;71.90;;;;;;4106951;28;20027;-87
2022/06/29 05:02:27;;;;;;;4.22;1.80;;;16.90;71.60;;;;;;4095144;28;20936;-87
2022/06/29 05:04:48;;;;;;;5.90;2.03;;;17.00;71.50;;;;;;4110369;28;20038;-89
2022/06/29 05:07:09;;;;;;;4.45;1.65;;;17.10;71.30;;;;;;4105523;28;20387;-89
2022/06/29 05:09:30;;;;;;;4.03;1.90;;;17.20;70.90;;;;;;4110763;28;20035;-87
2022/06/29 05:11:52;;;;;;;3.47;1.30;;;17.20;70.50;;;;;;4092235;28;20035;-88
2022/06/29 05:14:13;;;;;;;5.95;1.90;;;17.40;70.40;;;;;;4110366;28;20094;-89
2022/06/29 05:16:34;;;;;;;4.13;2.05;;;17.40;70.30;;;;;;4090699;28;20031;-90
2022/06/29 05:18:55;;;;;;;3.45;1.90;;;17.50;70.40;;;;;;4112525;28;20031;-90
2022/06/29 05:21:18;;;;;;;3.65;1.77;;;17.50;70.40;;;;;;4096906;28;20035;-90
2022/06/29 05:23:44;;;;;;;5.25;1.80;;;17.50;70.40;;;;;;4104493;28;20460;-90
2022/06/29 05:26:06;;;;;;;3.20;2.20;;;17.60;70.30;;;;;;4113729;28;20399;-89
2022/06/29 05:28:30;;;;;;;4.68;1.70;;;17.70;70.30;;;;;;4112126;28;20027;-89
2022/06/29 05:30:51;;;;;;;;;;;17.70;70.20;;;;;;4106030;28;20043;-91
2022/06/29 05:33:13;;;;;;;5.20;1.90;;;17.80;70.60;;;;;;4099429;28;19910;-90
2022/06/29 05:35:34;;;;;;;2.88;1.45;;;17.90;70.10;;;;;;4094929;28;20039;-90
2022/06/29 05:37:57;;;;;;;6.00;1.45;;;17.90;70.30;;;;;;4098510;28;20051;-89
2022/06/29 05:40:18;;;;;;;4.47;1.55;;;18.00;70.50;;;;;;4100470;28;20076;-91
2022/06/29 05:42:39;;;;;;;3.65;1.52;;;18.00;70.40;;;;;;4090077;28;20356;-90
2022/06/29 05:45:01;;;;;;;8.05;1.83;;;18.10;70.40;;;;;;4091398;28;20037;-88
2022/06/29 05:47:22;;;;;;;5.60;1.73;;;18.20;70.50;;;;;;4085736;28;20271;-87
2022/06/29 05:49:43;;;;;;;3.90;1.63;;;18.30;70.80;;;;;;4098222;28;20495;-88
2022/06/29 05:52:04;;;;;;;5.38;1.42;;;18.30;71.00;;;;;;4089452;28;20042;-89
2022/06/29 05:54:26;;;;;;;4.18;1.27;;;18.40;70.80;;;;;;4099636;28;20039;-88
2022/06/29 05:56:47;;;;;;;4.60;1.55;;;18.50;70.50;;;;;;4095331;28;20553;-86
2022/06/29 05:59:08;;;;;;;2.92;1.38;;;18.50;70.50;;;;;;4100172;28;20039;-88
2022/06/29 06:01:29;;;;;;;3.35;1.40;;;18.60;70.20;;;;;;4096819;28;21513;-86
2022/06/29 06:03:56;;;;;;;4.22;1.30;;;18.70;69.90;;;;;;4096845;28;20034;-87
2022/06/29 06:06:17;;;;;;;5.60;1.42;;;18.80;69.80;;;;;;4095165;28;20035;-88
2022/06/29 06:08:38;;;;;;;4.47;1.10;;;18.80;69.60;;;;;;4085511;28;20117;-89
2022/06/29 06:11:02;;;;;;;6.80;1.35;;;18.90;69.50;;;;;;4084181;28;20039;-91
2022/06/29 06:13:23;;;;;;;;;;;19.00;69.40;;;;;;4099453;28;20038;-90
2022/06/29 06:15:44;;;;;;;4.05;1.33;;;19.00;69.70;;;;;;4087789;28;19911;-90
2022/06/29 06:18:08;;;;;;;1.60;1.02;;;19.10;70.10;;;;;;4091838;28;20035;-90
2022/06/29 06:20:29;;;;;;;4.20;1.13;;;19.10;69.40;;;;;;4101727;28;20498;-89
2022/06/29 06:22:50;;;;;;;4.00;1.25;;;19.20;69.20;;;;;;4101297;28;20067;-89
2022/06/29 06:25:11;;;;;;;2.90;0.90;;;19.30;69.10;;;;;;4089340;28;20047;-90
2022/06/29 06:27:32;;;;;;;1.75;0.93;;;19.40;68.70;;;;;;4086747;28;20122;-91
2022/06/29 06:29:53;;;;;;;2.05;1.10;;;19.50;68.60;;;;;;4106763;28;20042;-89
2022/06/29 06:32:16;;;;;;;1.73;1.10;;;19.50;68.40;;;;;;4102009;28;20129;-89
2022/06/29 06:34:38;;;;;;;3.15;0.98;;;19.60;68.30;;;;;;4103665;28;20034;-90
2022/06/29 06:36:59;;;;;;;5.95;1.25;;;19.60;68.10;;;;;;4089143;28;20051;-90
2022/06/29 06:39:20;;;;;;;4.18;0.93;;;19.70;68.00;;;;;;4103718;28;20034;-89
2022/06/29 06:41:41;;;;;;;2.35;0.80;;;19.80;67.50;;;;;;4090987;28;20042;-92
2022/06/29 06:44:03;;;;;;;2.00;0.85;;;19.90;67.20;;;;;;4085711;28;20050;-89
2022/06/29 06:46:24;;;;;;;1.80;0.80;;;19.90;66.60;;;;;;4098724;28;20125;-89
2022/06/29 06:48:46;;;;;;;4.43;0.88;;;20.00;65.90;;;;;;4104755;28;20114;-91
2022/06/29 06:51:07;;;;;;;2.80;0.80;;;20.10;65.20;;;;;;4079395;28;20146;-90
2022/06/29 06:53:28;;;;;;;3.35;1.10;;;20.10;64.70;;;;;;4102533;28;20043;-89
2022/06/29 06:55:49;;;;;;;2.22;0.75;;;20.20;64.40;;;;;;4091845;28;20031;-90
2022/06/29 06:58:13;;;;;;;1.40;0.80;;;20.20;64.20;;;;;;4108665;28;20051;-90
2022/06/29 07:00:34;;;;;;;3.05;0.77;;;20.30;63.60;;;;;;4095586;28;20304;-89
2022/06/29 07:02:55;;;;;;;1.23;0.60;;;20.40;63.10;;;;;;4080974;28;20126;-89
2022/06/29 07:05:17;;;;;;;4.93;0.82;;;20.50;63.20;;;;;;4110632;28;20155;-90
2022/06/29 07:07:41;;;;;;;1.17;0.80;;;20.50;62.30;;;;;;4108804;28;20035;-90
2022/06/29 07:10:05;;;;;;;5.60;0.80;;;20.60;61.80;;;;;;4132939;28;20015;-89
2022/06/29 07:12:29;;;;;;;2.13;0.85;;;20.60;61.30;;;;;;4109985;28;20027;-89
2022/06/29 07:14:50;;;;;;;2.13;0.85;;;20.70;61.20;;;;;;4114543;28;20058;-89
2022/06/29 07:17:13;;;;;;;2.45;0.93;;;20.80;61.00;;;;;;4108669;28;20099;-82
2022/06/29 07:19:35;;;;;;;5.15;0.90;;;20.80;59.60;;;;;;4108979;28;20031;-82
2022/06/29 07:21:56;;;;;;;2.17;0.80;;;20.90;60.00;;;;;;4102871;28;20487;-82
2022/06/29 07:24:17;;;;;;;1.20;0.63;;;20.90;59.20;;;;;;4103518;28;20093;-82
2022/06/29 07:26:38;;;;;;;3.75;0.63;;;20.90;58.90;;;;;;4101762;28;20404;-81
2022/06/29 07:28:59;;;;;;;1.25;0.65;;;21.00;59.00;;;;;;4107449;28;20386;-83
2022/06/29 07:31:20;;;;;;;4.20;0.80;;;21.00;59.00;;;;;;4110824;28;20046;-83
2022/06/29 07:33:41;;;;;;;1.23;0.70;;;21.00;58.70;;;;;;4104448;28;20087;-82
2022/06/29 07:36:02;;;;;;;3.45;1.02;;;21.00;58.90;;;;;;4102061;28;20319;-82
2022/06/29 07:38:26;;;;;;;2.60;0.80;;;21.00;58.40;;;;;;4109227;28;20077;-82
2022/06/29 07:40:47;;;;;;;3.13;0.85;;;21.00;58.10;;;;;;4107237;28;20066;-83
2022/06/29 07:43:10;;;;;;;2.85;0.85;;;21.00;58.60;;;;;;4089599;28;20035;-82
2022/06/29 07:45:31;;;;;;;2.15;0.82;;;21.10;59.10;;;;;;4094255;28;20031;-82
2022/06/29 07:47:52;;;;;;;3.78;1.10;;;21.10;59.30;;;;;;4115415;28;20069;-83
2022/06/29 07:50:13;;;;;;;2.30;0.93;;;21.10;59.00;;;;;;4111281;28;20042;-83
2022/06/29 07:52:38;;;;;;;0.98;0.60;;;21.10;58.80;;;;;;4107194;28;20158;-82
2022/06/29 07:55:03;;;;;;;1.77;0.70;;;21.10;58.30;;;;;;4091480;28;20035;-82
2022/06/29 07:57:24;;;;;;;0.98;0.80;;;21.10;58.80;;;;;;4109428;28;20041;-82
2022/06/29 07:59:47;;;;;;;3.55;1.02;;;21.20;59.00;;;;;;4096101;28;20028;-83
2022/06/29 08:02:08;;;;;;;4.50;1.15;;;21.20;59.00;;;;;;4111675;28;20138;-83
2022/06/29 08:04:29;;;;;;;1.80;0.80;;;21.30;58.90;;;;;;4097521;28;20106;-83
2022/06/29 08:06:50;;;;;;;3.30;0.88;;;21.30;58.90;;;;;;4108685;28;20037;-81
2022/06/29 08:09:14;;;;;;;2.70;0.90;;;21.40;58.50;;;;;;4103219;28;20043;-83
2022/06/29 08:11:35;;;;;;;4.35;1.00;;;21.50;57.90;;;;;;4109711;28;20105;-83
2022/06/29 08:13:57;;;;;;;5.53;0.93;;;21.60;57.80;;;;;;4111511;28;20046;-84
2022/06/29 08:16:18;;;;;;;3.35;0.80;;;21.60;57.10;;;;;;4097525;28;20046;-82
2022/06/29 08:18:39;;;;;;;2.22;0.82;;;21.70;57.20;;;;;;4110573;28;20035;-83
2022/06/29 08:21:05;;;;;;;2.10;0.73;;;21.70;57.20;;;;;;4108343;28;20039;-82
2022/06/29 08:23:26;;;;;;;1.40;0.70;;;21.80;56.10;;;;;;4095282;28;20038;-82
2022/06/29 08:25:47;;;;;;;2.53;0.70;;;21.80;55.80;;;;;;4094861;28;20319;-83
2022/06/29 08:28:08;;;;;;;3.33;0.70;;;21.90;55.90;;;;;;4094041;28;20440;-82
2022/06/29 08:30:31;;;;;;;4.10;0.80;;;21.90;54.50;;;;;;4109157;28;20098;-83
2022/06/29 08:32:52;;;;;;;5.70;0.98;;;21.90;54.30;;;;;;4111623;28;20034;-82
2022/06/29 08:35:15;;;;;;;2.97;1.13;;;22.00;54.20;;;;;;4108570;28;20104;-83
2022/06/29 08:37:37;;;;;;;3.13;0.90;;;22.10;54.20;;;;;;4107600;28;20023;-83
2022/06/29 08:39:58;;;;;;;1.23;0.77;;;22.10;53.90;;;;;;4105243;28;20122;-83
2022/06/29 08:42:22;;;;;;;3.67;0.73;;;22.10;53.80;;;;;;4111802;28;20063;-83
2022/06/29 08:44:46;;;;;;;4.10;0.82;;;22.10;53.60;;;;;;4109295;28;20054;-83
2022/06/29 08:47:10;;;;;;;3.13;0.88;;;22.20;52.60;;;;;;4099580;28;20579;-83
2022/06/29 08:49:33;;;;;;;1.90;0.80;;;22.20;52.70;;;;;;4095965;28;20118;-83
2022/06/29 08:51:56;;;;;;;2.28;0.80;;;22.20;52.30;;;;;;4116800;28;20495;-82
2022/06/29 08:54:19;;;;;;;2.42;0.90;;;22.20;52.30;;;;;;4112016;28;20035;-83
2022/06/29 08:56:41;;;;;;;;;;;22.20;50.80;;;;;;4109843;28;20042;-83
2022/06/29 08:59:03;;;;;;;3.72;0.90;;;22.20;50.20;;;;;;4115965;28;19938;-83
2022/06/29 09:01:24;;;;;;;8.32;1.27;;;22.20;51.30;;;;;;4103879;28;20522;-83
2022/06/29 09:03:45;;;;;;;2.72;0.90;;;22.30;51.60;;;;;;4106599;28;20045;-83
2022/06/29 09:06:09;;;;;;;1.70;0.70;;;22.30;51.80;;;;;;4104650;28;20043;-82
2022/06/29 09:08:31;;;;;;;2.97;0.80;;;22.30;52.30;;;;;;4098476;28;20110;-83
2022/06/29 09:10:52;;;;;;;2.83;0.90;;;22.30;52.30;;;;;;4110116;28;20038;-83
2022/06/29 09:13:23;;;;;;;5.28;0.90;;;22.30;52.40;;;;;;4100110;28;20109;-83
2022/06/29 09:15:44;;;;;;;1.67;0.65;;;22.30;50.90;;;;;;4112163;28;20031;-83
2022/06/29 09:18:28;;;;;;;5.43;1.23;;;22.30;51.00;;;;;;4110131;28;20070;-83
2022/06/29 09:20:54;;;;;;;7.17;0.90;;;22.40;50.30;;;;;;4111856;28;20035;-84
2022/06/29 09:23:18;;;;;;;1.88;0.70;;;22.40;51.30;;;;;;4108353;28;20034;-83
2022/06/29 09:25:41;;;;;;;;;;;22.40;51.80;;;;;;4110855;28;20066;-83
2022/06/29 09:28:23;;;;;;;3.85;1.00;;;22.50;52.00;;;;;;4098701;28;20010;-82
2022/06/29 09:30:45;;;;;;;5.22;1.02;;;22.50;52.30;;;;;;4113789;28;20035;-83
2022/06/29 09:33:07;;;;;;;8.18;1.20;;;22.50;52.40;;;;;;4087417;28;20059;-83
2022/06/29 09:35:28;;;;;;;3.40;1.00;;;22.40;52.10;;;;;;4108323;28;20027;-83
2022/06/29 09:37:49;;;;;;;1.73;0.77;;;22.40;52.50;;;;;;4099104;28;20035;-83
2022/06/29 09:40:11;;;;;;;4.88;1.10;;;22.40;52.90;;;;;;4112415;28;20066;-84
2022/06/29 09:42:37;;;;;;;7.35;1.45;;;22.30;52.30;;;;;;4097303;28;20031;-83
2022/06/29 09:44:58;;;;;;;3.95;0.90;;;22.30;53.00;;;;;;4095114;28;20039;-83
2022/06/29 09:47:21;;;;;;;4.40;0.98;;;22.30;53.40;;;;;;4110880;28;20054;-83
2022/06/29 09:49:44;;;;;;;3.97;1.20;;;22.30;53.20;;;;;;4092656;28;20032;-83
2022/06/29 09:52:06;;;;;;;5.50;1.00;;;22.30;52.50;;;;;;4111027;28;20031;-83
2022/06/29 09:54:35;;;;;;;1.92;0.90;;;22.30;53.00;;;;;;4110408;28;20062;-83
2022/06/29 09:56:57;;;;;;;3.28;1.00;;;22.30;53.90;;;;;;4094060;28;20051;-83
2022/06/29 10:05:05;;;;;;;5.82;1.10;;;22.40;52.40;;;;;;4111061;28;20110;-82
2022/06/29 10:07:28;;;;;;;4.65;1.25;;;22.40;52.40;;;;;;4111973;28;20119;-83
2022/06/29 10:09:49;;;;;;;3.83;1.07;;;22.40;52.10;;;;;;4102625;28;20271;-82
2022/06/29 10:15:15;;;;;;;2.63;0.90;;;22.20;51.70;;;;;;4098329;28;20038;-82
2022/06/29 10:17:49;;;;;;;2.58;0.90;;;22.00;51.20;;;;;;4109164;28;20400;-84
2022/06/29 10:20:28;;;;;;;;;;;22.00;52.10;;;;;;4092059;28;20031;-81
2022/06/29 10:22:49;;;;;;;5.15;1.20;;;21.80;50.60;;;;;;4087609;28;19914;-82
2022/06/29 10:25:12;;;;;;;2.42;1.02;;;21.90;51.90;;;;;;4104605;28;20739;-82
2022/06/29 10:27:33;;;;;;;3.97;1.33;;;22.00;52.10;;;;;;4105524;28;20039;-82
2022/06/29 10:30:20;;;;;;;7.05;1.02;;;22.00;52.20;;;;;;4113135;28;20084;-82
2022/06/29 10:32:41;;;;;;;3.85;1.00;;;22.10;53.00;;;;;;4105685;28;20043;-82
2022/06/29 10:35:07;;;;;;;6.07;1.23;;;22.00;52.00;;;;;;4105532;28;20039;-82
2022/06/29 10:37:29;;;;;;;3.63;1.00;;;22.10;51.40;;;;;;4108465;28;20099;-83
2022/06/29 10:39:50;;;;;;;7.10;1.05;;;22.10;52.10;;;;;;4108086;28;20062;-83
2022/06/29 10:45:03;;;;;;;4.10;1.10;;;22.30;51.60;;;;;;4105514;28;20033;-85
2022/06/29 10:47:25;;;;;;;2.13;0.90;;;22.30;50.70;;;;;;4108764;28;20034;-83
2022/06/29 10:49:49;;;;;;;4.47;0.98;;;22.30;50.40;;;;;;4095466;28;20126;-83
2022/06/29 10:52:10;;;;;;;8.07;1.33;;;22.40;51.10;;;;;;4085440;28;20047;-83
2022/06/29 10:54:31;;;;;;;3.08;1.17;;;22.40;50.60;;;;;;4104748;28;20125;-83
2022/06/29 10:56:52;;;;;;;3.35;1.15;;;22.50;51.20;;;;;;4108240;28;20122;-83
2022/06/29 10:59:35;;;;;;;5.03;1.00;;;22.50;51.50;;;;;;4100984;28;20035;-83
2022/06/29 11:02:15;;;;;;;3.70;1.02;;;22.50;51.40;;;;;;4106840;28;20613;-83
2022/06/29 11:04:38;;;;;;;3.20;1.30;;;22.60;50.90;;;;;;4092567;28;20031;-84
2022/06/29 11:12:29;;;;;;;4.07;1.20;;;22.70;51.60;;;;;;4106434;28;20048;-84
2022/06/29 11:17:47;;;;;;;7.97;1.08;;;22.60;52.30;;;;;;4105593;28;20903;-83
2022/06/29 11:20:19;;;;;;;4.47;1.15;;;22.70;52.20;;;;;;4102285;28;20035;-83
2022/06/29 11:22:49;;;;;;;2.40;0.75;;;22.70;51.80;;;;;;4110275;28;20039;-84
2022/06/29 11:25:10;;;;;;;7.35;1.10;;;22.70;52.30;;;;;;4093503;28;20039;-83
2022/06/29 11:27:31;;;;;;;5.78;1.55;;;22.60;51.30;;;;;;4102999;28;21398;-83
2022/06/29 11:29:52;;;;;;;7.13;1.10;;;22.60;52.00;;;;;;4104267;28;20500;-83
2022/06/29 11:32:13;;;;;;;2.38;0.85;;;22.60;52.10;;;;;;4108427;28;20510;-83
2022/06/29 11:34:34;;;;;;;2.38;1.00;;;22.70;52.50;;;;;;4085987;28;20041;-84
2022/06/29 11:37:00;;;;;;;7.60;0.90;;;22.60;52.60;;;;;;4107253;28;20070;-83
2022/06/29 11:39:22;;;;;;;3.10;1.00;;;22.70;52.40;;;;;;4088109;28;20034;-84
2022/06/29 11:44:31;;;;;;;6.38;1.15;;;22.70;52.60;;;;;;4100830;28;20039;-82
2022/06/29 11:46:53;;;;;;;4.68;1.20;;;22.70;52.60;;;;;;4095044;28;20046;-82
2022/06/29 11:49:33;;;;;;;2.92;0.88;;;22.70;53.10;;;;;;4100210;28;20043;-84
2022/06/29 11:51:57;;;;;;;4.88;1.10;;;22.70;53.40;;;;;;4098522;28;20062;-83
2022/06/29 11:54:33;;;;;;;1.98;0.98;;;22.70;51.80;;;;;;4095793;28;20130;-83
2022/06/29 11:56:55;;;;;;;3.13;1.00;;;22.80;52.50;;;;;;4094203;28;21200;-84
2022/06/29 11:59:18;;;;;;;2.17;1.00;;;22.80;52.00;;;;;;4094666;28;20041;-83
2022/06/29 12:01:52;;;;;;;6.13;1.15;;;22.90;51.40;;;;;;4076987;28;20042;-83
2022/06/29 12:04:28;;;;;;;2.72;1.15;;;22.90;51.20;;;;;;4097274;28;20058;-80
2022/06/29 12:06:49;;;;;;;5.03;1.17;;;22.90;49.90;;;;;;4098224;28;20046;-82
2022/06/29 12:09:11;;;;;;;5.28;1.10;;;23.00;50.40;;;;;;4092669;28;20046;-82
2022/06/29 12:11:32;;;;;;;12.13;1.27;;;23.00;50.70;;;;;;4097953;28;20130;-81
2022/06/29 12:13:54;;;;;;;4.32;1.13;;;22.90;49.30;;;;;;4083886;28;20078;-83
2022/06/29 12:16:17;;;;;;;2.92;1.20;;;22.70;49.90;;;;;;4096331;28;20038;-82
2022/06/29 12:18:41;;;;;;;3.85;1.20;;;22.70;50.80;;;;;;4094306;28;20531;-82
2022/06/29 12:21:02;;;;;;;;;;;22.70;50.70;;;;;;4094727;28;20464;-83
2022/06/29 12:23:23;;;;;;;;;;;22.70;51.40;;;;;;4089725;28;19918;-82
2022/06/29 12:25:45;;;;;;;;;;;22.70;51.90;;;;;;4085339;28;20122;-84
2022/06/29 12:28:06;;;;;;;;;;;22.70;52.20;;;;;;4078803;28;19922;-84
2022/06/29 12:30:28;;;;;;;;;;;22.60;52.80;;;;;;4096130;28;19917;-83
2022/06/29 12:32:48;;;;;;;;;;;22.70;52.80;;;;;;4095782;28;19922;-84
2022/06/29 12:35:09;;;;;;;;;;;22.80;52.90;;;;;;4094327;28;20379;-83
2022/06/29 12:37:30;;;;;;;;;;;22.90;52.50;;;;;;4097556;28;21189;-84
2022/06/29 12:39:51;;;;;;;;;;;22.90;53.20;;;;;;4094002;28;19914;-84
2022/06/29 12:42:12;;;;;;;;;;;23.00;52.80;;;;;;4099037;28;20394;-83
2022/06/29 12:44:33;;;;;;;;;;;23.00;53.50;;;;;;4088563;28;20247;-84
2022/06/29 12:46:54;;;;;;;;;;;23.10;52.80;;;;;;4096073;28;19918;-84
2022/06/29 12:49:17;;;;;;;;;;;23.10;52.30;;;;;;4087562;28;19915;-84
2022/06/29 12:51:39;;;;;;;;;;;23.00;52.10;;;;;;4092683;28;20016;-82
2022/06/29 12:54:01;;;;;;;;;;;22.90;52.50;;;;;;4104499;28;20042;-84
2022/06/29 12:56:22;;;;;;;;;;;22.90;52.50;;;;;;4102145;28;19914;-84
2022/06/29 12:58:43;;;;;;;;;;;22.90;52.10;;;;;;4103374;28;19910;-83